createdAt,value
2022-12-15T00:00:23.570Z,66.66
2022-12-15T00:03:10.358Z,67.83
2022-12-15T00:05:57.270Z,66.56
2022-12-15T00:08:43.900Z,66.02
2022-12-15T00:11:30.237Z,66.29
2022-12-15T00:14:16.843Z,66.55
2022-12-15T00:17:03.396Z,66.31
2022-12-15T00:19:50.167Z,66.54
2022-12-15T00:22:36.656Z,66.05
2022-12-15T00:25:23.643Z,67.33
2022-12-15T00:28:10.086Z,67.92
2022-12-15T00:31:02.116Z,66.01
2022-12-15T00:33:49.189Z,67.29
2022-12-15T00:36:35.715Z,66.97
2022-12-15T00:39:04.282Z,68.51
2022-12-15T00:41:32.340Z,67.80
2022-12-15T00:44:00.231Z,68.15
2022-12-15T00:46:46.878Z,68.32
2022-12-15T00:49:33.783Z,67.59
2022-12-15T00:52:20.538Z,67.90
2022-12-15T00:55:07.365Z,67.56
2022-12-15T00:57:53.973Z,67.26
2022-12-15T01:00:41.008Z,67.08
2022-12-15T01:03:31.218Z,66.75
2022-12-15T01:06:18.410Z,67.42
2022-12-15T01:09:04.624Z,66.04
2022-12-15T01:11:51.387Z,68.38
2022-12-15T01:14:38.199Z,66.11
2022-12-15T01:17:24.677Z,67.66
2022-12-15T01:20:11.853Z,66.79
2022-12-15T01:22:40.767Z,67.57
2022-12-15T01:25:10.437Z,67.42
2022-12-15T01:27:38.542Z,66.79
2022-12-15T01:30:08.366Z,68.20
2022-12-15T01:32:39.371Z,67.69
2022-12-15T01:35:10.883Z,66.42
2022-12-15T01:37:39.455Z,66.42
2022-12-15T01:40:30.259Z,64.82
2022-12-15T01:42:58.315Z,62.94
2022-12-15T01:45:29.189Z,64.15
2022-12-15T01:48:03.248Z,63.82
2022-12-15T01:50:37.674Z,64.19
2022-12-15T01:53:06.110Z,64.13
2022-12-15T01:55:34.044Z,63.85
2022-12-15T01:58:06.790Z,62.93
2022-12-15T02:00:35.358Z,61.92
2022-12-15T02:03:06.674Z,61.82
2022-12-15T02:05:35.652Z,61.99
2022-12-15T02:08:05.337Z,62.40
2022-12-15T02:11:14.466Z,63.13
2022-12-15T02:14:06.691Z,64.38
2022-12-15T02:17:29.458Z,62.50
2022-12-15T02:20:28.171Z,64.32
2022-12-15T02:23:14.230Z,64.34
2022-12-15T02:26:03.233Z,61.78
2022-12-15T02:28:55.377Z,62.42
2022-12-15T02:31:49.933Z,63.05
2022-12-15T02:34:18.350Z,62.23
2022-12-15T02:36:59.487Z,59.86
2022-12-15T02:39:27.615Z,60.83
2022-12-15T02:41:55.526Z,59.60
2022-12-15T02:44:35.605Z,59.05
2022-12-15T02:47:06.554Z,61.53
2022-12-15T02:49:49.994Z,60.66
2022-12-15T02:52:26.984Z,56.94
2022-12-15T02:55:05.395Z,56.16
2022-12-15T02:57:44.628Z,55.86
2022-12-15T03:00:15.725Z,55.65
2022-12-15T03:02:51.402Z,56.41
2022-12-15T03:05:22.698Z,55.78
2022-12-15T03:07:54.871Z,54.88
2022-12-15T03:10:25.667Z,54.20
2022-12-15T03:12:54.734Z,55.30
2022-12-15T03:15:22.633Z,54.10
2022-12-15T03:17:50.517Z,53.78
2022-12-15T03:20:18.385Z,52.73
2022-12-15T03:22:46.287Z,52.74
2022-12-15T03:25:14.443Z,52.63
2022-12-15T03:27:42.409Z,50.72
2022-12-15T03:30:10.839Z,52.58
2022-12-15T03:32:38.746Z,52.76
2022-12-15T03:35:07.477Z,51.73
2022-12-15T03:37:35.568Z,53.35
2022-12-15T03:40:03.765Z,57.21
2022-12-15T03:42:49.899Z,59.17
2022-12-15T03:45:23.332Z,60.15
2022-12-15T03:47:51.919Z,60.70
2022-12-15T03:50:22.466Z,62.11
2022-12-15T03:53:03.490Z,60.42
2022-12-15T03:55:31.442Z,61.45
2022-12-15T03:57:59.426Z,62.05
2022-12-15T04:00:27.521Z,60.91
2022-12-15T04:02:55.815Z,61.59
2022-12-15T04:05:29.549Z,62.27
2022-12-15T04:07:59.419Z,61.74
2022-12-15T04:10:33.998Z,60.66
2022-12-15T04:13:08.034Z,61.40
2022-12-15T04:15:37.786Z,60.20
2022-12-15T04:18:07.484Z,61.61
2022-12-15T04:20:35.825Z,60.74
2022-12-15T04:23:03.722Z,60.31
2022-12-15T04:25:50.298Z,65.86
2022-12-15T04:28:36.928Z,61.09
2022-12-15T04:31:29.761Z,60.21
2022-12-15T04:34:20.965Z,61.26
2022-12-15T04:37:10.651Z,59.92
2022-12-15T04:40:01.646Z,59.62
2022-12-15T04:42:51.043Z,59.43
2022-12-15T04:45:40.878Z,60.96
2022-12-15T04:48:28.221Z,57.81
2022-12-15T04:51:14.990Z,59.24
2022-12-15T04:54:04.546Z,58.78
2022-12-15T04:56:51.144Z,57.31
2022-12-15T04:59:38.077Z,58.78
2022-12-15T05:02:24.692Z,58.08
2022-12-15T05:05:12.329Z,58.10
2022-12-15T05:07:59.223Z,59.33
2022-12-15T05:10:45.637Z,59.16
2022-12-15T05:13:32.691Z,58.12
2022-12-15T05:16:19.691Z,56.54
2022-12-15T05:19:06.101Z,58.64
2022-12-15T05:21:52.706Z,58.09
2022-12-15T05:24:39.340Z,57.67
2022-12-15T05:27:26.013Z,57.58
2022-12-15T05:30:12.401Z,57.55
2022-12-15T05:32:40.544Z,58.79
2022-12-15T05:35:08.525Z,58.98
2022-12-15T05:37:36.438Z,57.66
2022-12-15T05:40:05.431Z,57.43
2022-12-15T05:42:34.364Z,57.34
2022-12-15T05:45:02.226Z,56.89
2022-12-15T05:47:31.038Z,57.15
2022-12-15T05:49:58.897Z,56.95
2022-12-15T05:52:27.097Z,57.69
2022-12-15T05:54:55.029Z,57.99
2022-12-15T05:57:22.988Z,57.88
2022-12-15T05:59:50.837Z,55.46
2022-12-15T06:02:18.842Z,56.88
2022-12-15T06:04:46.791Z,55.98
2022-12-15T06:07:14.738Z,56.22
2022-12-15T06:09:42.667Z,56.58
2022-12-15T06:12:10.556Z,55.92
2022-12-15T06:14:38.461Z,56.82
2022-12-15T06:17:06.400Z,56.89
2022-12-15T06:19:34.309Z,55.90
2022-12-15T06:22:02.343Z,56.06
2022-12-15T06:24:30.205Z,57.57
2022-12-15T06:26:58.146Z,54.59
2022-12-15T06:29:26.018Z,56.81
2022-12-15T06:31:53.950Z,57.39
2022-12-15T06:34:21.869Z,58.22
2022-12-15T06:36:50.360Z,56.65
2022-12-15T06:39:18.382Z,55.69
2022-12-15T06:41:46.670Z,57.29
2022-12-15T06:44:16.166Z,57.83
2022-12-15T06:46:45.741Z,58.04
2022-12-15T06:49:14.538Z,56.93
2022-12-15T06:51:44.043Z,57.47
2022-12-15T06:54:12.027Z,58.11
2022-12-15T06:56:39.941Z,59.23
2022-12-15T06:59:08.497Z,59.09
2022-12-15T07:01:36.612Z,59.00
2022-12-15T07:04:05.794Z,58.14
2022-12-15T07:06:38.656Z,60.00
2022-12-15T07:09:10.738Z,59.40
2022-12-15T07:11:38.859Z,59.88
2022-12-15T07:14:06.841Z,61.96
2022-12-15T07:16:34.901Z,61.42
2022-12-15T07:19:02.887Z,61.52
2022-12-15T07:21:30.967Z,62.71
2022-12-15T07:23:59.733Z,63.98
2022-12-15T07:26:28.571Z,62.99
2022-12-15T07:28:56.680Z,62.33
2022-12-15T07:31:24.860Z,62.72
2022-12-15T07:33:54.541Z,64.40
2022-12-15T07:36:22.727Z,63.43
2022-12-15T07:38:51.609Z,62.03
2022-12-15T07:41:20.638Z,63.41
2022-12-15T07:43:49.411Z,62.33
2022-12-15T07:46:18.237Z,61.92
2022-12-15T07:48:50.237Z,62.53
2022-12-15T07:51:20.620Z,63.25
2022-12-15T07:53:51.277Z,63.55
2022-12-15T07:56:20.318Z,62.28
2022-12-15T07:58:48.301Z,60.82
2022-12-15T08:01:17.004Z,59.27
2022-12-15T08:03:45.440Z,62.88
2022-12-15T08:06:14.762Z,64.60
2022-12-15T08:08:44.752Z,61.88
2022-12-15T08:11:19.592Z,64.32
2022-12-15T08:14:05.632Z,62.95
2022-12-15T08:16:36.733Z,65.04
2022-12-15T08:19:05.565Z,64.65
2022-12-15T08:21:34.044Z,63.78
2022-12-15T08:24:02.315Z,64.08
2022-12-15T08:26:31.799Z,62.69
2022-12-15T08:29:40.398Z,63.63
2022-12-15T08:31:53.039Z,61.81
2022-12-15T08:34:21.564Z,61.36
2022-12-15T08:36:49.495Z,62.33
2022-12-15T08:39:17.622Z,62.57
2022-12-15T08:41:45.533Z,63.89
2022-12-15T08:44:13.896Z,62.94
2022-12-15T08:46:42.354Z,62.48
2022-12-15T08:49:10.580Z,62.55
2022-12-15T08:51:38.466Z,62.56
2022-12-15T08:54:08.098Z,63.76
2022-12-15T08:56:36.084Z,63.95
2022-12-15T08:59:04.049Z,61.07
2022-12-15T09:01:33.079Z,61.34
2022-12-15T09:04:04.114Z,61.34
2022-12-15T09:06:34.827Z,62.02
2022-12-15T09:09:07.294Z,61.51
2022-12-15T09:11:35.485Z,62.25
2022-12-15T09:14:04.105Z,62.63
2022-12-15T09:16:32.193Z,63.00
2022-12-15T09:19:00.394Z,63.70
2022-12-15T09:21:30.271Z,63.35
2022-12-15T09:24:01.834Z,65.97
2022-12-15T09:26:33.583Z,65.58
2022-12-15T09:29:02.461Z,66.00
2022-12-15T09:31:34.055Z,66.05
2022-12-15T09:34:02.403Z,64.89
2022-12-15T09:36:32.840Z,65.09
2022-12-15T09:39:02.884Z,65.27
2022-12-15T09:41:33.668Z,65.10
2022-12-15T09:44:15.116Z,64.96
2022-12-15T09:47:23.114Z,65.07
2022-12-15T09:49:57.991Z,62.53
2022-12-15T09:52:29.517Z,63.43
2022-12-15T09:54:58.162Z,63.62
2022-12-15T09:58:23.178Z,63.48
2022-12-15T10:01:01.191Z,61.85
2022-12-15T10:03:55.134Z,63.55
2022-12-15T10:06:33.936Z,64.39
2022-12-15T10:09:22.887Z,63.64
2022-12-15T10:11:57.653Z,63.27
2022-12-15T10:14:37.705Z,62.46
2022-12-15T10:17:21.450Z,63.30
2022-12-15T10:19:56.359Z,62.55
2022-12-15T10:22:26.557Z,62.78
2022-12-15T10:25:11.152Z,62.45
2022-12-15T10:27:49.309Z,64.47
2022-12-15T10:30:17.602Z,63.61
2022-12-15T10:32:57.573Z,64.79
2022-12-15T10:35:30.264Z,64.44
2022-12-15T10:38:00.231Z,64.59
2022-12-15T10:40:51.996Z,63.86
2022-12-15T10:43:35.534Z,64.32
2022-12-15T10:46:07.452Z,63.09
2022-12-15T10:48:36.616Z,64.82
2022-12-15T10:51:21.511Z,64.19
2022-12-15T10:54:06.678Z,65.27
2022-12-15T10:56:35.027Z,66.17
2022-12-15T10:59:23.028Z,66.16
2022-12-15T11:01:52.100Z,65.72
2022-12-15T11:04:26.198Z,64.36
2022-12-15T11:07:02.698Z,66.96
2022-12-15T11:09:37.121Z,65.42
2022-12-15T11:12:38.873Z,65.87
2022-12-15T11:15:21.763Z,66.20
2022-12-15T11:18:01.775Z,66.07
2022-12-15T11:20:40.548Z,69.79
2022-12-15T11:23:34.506Z,72.24
2022-12-15T11:26:22.874Z,72.36
2022-12-15T11:28:58.226Z,71.04
2022-12-15T11:31:37.914Z,71.30
2022-12-15T11:34:14.821Z,71.58
2022-12-15T11:36:55.171Z,73.65
2022-12-15T11:39:29.114Z,72.78
2022-12-15T11:42:10.912Z,73.45
2022-12-15T11:44:53.007Z,73.06
2022-12-15T11:47:40.717Z,68.68
2022-12-15T11:50:31.327Z,62.40
2022-12-15T11:53:19.693Z,62.17
2022-12-15T11:56:07.093Z,62.39
2022-12-15T11:58:59.730Z,60.21
2022-12-15T12:04:39.996Z,60.13
2022-12-15T12:07:22.498Z,58.33
2022-12-15T12:10:03.657Z,58.48
2022-12-15T12:12:45.679Z,57.91
2022-12-15T12:15:37.596Z,58.55
2022-12-15T12:18:33.723Z,57.67
2022-12-15T12:21:07.933Z,57.95
2022-12-15T12:23:46.945Z,57.80
2022-12-15T12:26:25.025Z,59.93
2022-12-15T12:29:00.698Z,59.85
2022-12-15T12:32:04.054Z,60.09
2022-12-15T12:34:51.090Z,60.14
2022-12-15T12:37:40.578Z,61.25
2022-12-15T12:40:21.558Z,59.73
2022-12-15T12:42:59.039Z,59.34
2022-12-15T12:45:52.293Z,57.01
2022-12-15T12:48:35.409Z,56.13
2022-12-15T12:51:13.770Z,55.34
2022-12-15T12:53:41.991Z,56.60
2022-12-15T12:56:40.726Z,55.77
2022-12-15T12:59:30.379Z,58.88
2022-12-15T13:02:14.457Z,58.89
2022-12-15T13:04:44.419Z,59.14
2022-12-15T13:07:29.337Z,60.06
2022-12-15T13:10:09.189Z,62.07
2022-12-15T13:12:54.524Z,64.37
2022-12-15T13:15:39.300Z,63.65
2022-12-15T13:18:19.690Z,64.91
2022-12-15T13:20:50.725Z,66.19
2022-12-15T13:23:21.904Z,64.30
2022-12-15T13:25:55.987Z,64.33
2022-12-15T13:28:49.154Z,64.51
2022-12-15T13:31:21.750Z,64.40
2022-12-15T13:33:50.114Z,63.85
2022-12-15T13:36:37.116Z,63.55
2022-12-15T13:39:11.187Z,62.12
2022-12-15T13:42:31.737Z,61.82
2022-12-15T13:44:53.342Z,61.94
2022-12-15T13:47:31.273Z,65.94
2022-12-15T13:50:12.829Z,66.99
2022-12-15T13:53:18.006Z,67.09
2022-12-15T13:55:52.477Z,69.03
2022-12-15T13:58:22.045Z,68.23
2022-12-15T14:00:56.233Z,66.32
2022-12-15T14:03:24.900Z,64.75
2022-12-15T14:05:55.875Z,67.58
2022-12-15T14:08:27.112Z,102.94
2022-12-15T14:10:57.807Z,106.05
2022-12-15T14:13:30.174Z,98.15
2022-12-15T14:16:19.093Z,93.32
2022-12-15T14:19:03.899Z,94.62
2022-12-15T14:21:31.820Z,108.48
2022-12-15T14:24:36.922Z,123.49
2022-12-15T14:26:48.970Z,123.67
2022-12-15T14:29:19.324Z,109.32
2022-12-15T14:31:51.203Z,105.21
2022-12-15T14:34:23.988Z,92.21
2022-12-15T14:36:55.862Z,81.98
2022-12-15T14:39:34.608Z,80.10
2022-12-15T14:42:03.474Z,76.46
2022-12-15T14:47:30.897Z,70.93
2022-12-15T14:50:01.737Z,69.61
2022-12-15T14:52:37.307Z,66.35
2022-12-15T14:55:20.845Z,67.82
2022-12-15T14:57:53.474Z,65.59
2022-12-15T15:00:32.627Z,66.04
2022-12-15T15:03:04.869Z,59.19
2022-12-15T15:03:27.545Z,64.42
2022-12-15T15:05:59.486Z,62.08
2022-12-15T15:08:37.318Z,61.63
2022-12-15T15:11:23.172Z,62.47
2022-12-15T15:13:59.036Z,64.46
2022-12-15T15:16:27.754Z,64.23
2022-12-15T15:18:56.517Z,63.46
2022-12-15T15:21:27.610Z,63.45
2022-12-15T15:24:02.591Z,65.81
2022-12-15T15:26:31.475Z,64.95
2022-12-15T15:28:59.524Z,63.07
2022-12-15T15:31:41.409Z,64.21
2022-12-15T15:34:09.906Z,63.47
2022-12-15T15:36:39.018Z,64.19
2022-12-15T15:39:15.072Z,64.66
2022-12-15T15:41:43.048Z,64.95
2022-12-15T15:44:14.752Z,65.32
2022-12-15T15:46:51.671Z,64.91
2022-12-15T15:49:21.879Z,63.21
2022-12-15T15:51:49.759Z,64.24
2022-12-15T15:54:23.205Z,62.91
2022-12-15T15:56:51.665Z,61.36
2022-12-15T15:59:21.181Z,63.49
2022-12-15T16:01:57.705Z,68.63
2022-12-15T16:04:26.354Z,67.74
2022-12-15T16:06:54.597Z,66.78
2022-12-15T16:09:24.847Z,64.65
2022-12-15T16:11:54.444Z,65.11
2022-12-15T16:14:22.314Z,64.15
2022-12-15T16:16:50.220Z,62.70
2022-12-15T16:19:18.141Z,62.03
2022-12-15T16:21:50.780Z,59.60
2022-12-15T16:24:19.529Z,73.31
2022-12-15T16:26:50.031Z,84.95
2022-12-15T16:29:20.734Z,101.42
2022-12-15T16:31:48.901Z,101.96
2022-12-15T16:34:19.133Z,101.77
2022-12-15T16:36:48.395Z,101.69
2022-12-15T16:39:28.966Z,102.95
2022-12-15T16:41:57.285Z,88.05
2022-12-15T16:44:27.353Z,82.13
2022-12-15T16:46:55.450Z,77.32
2022-12-15T16:49:23.564Z,74.04
2022-12-15T16:51:53.792Z,62.20
2022-12-15T16:54:27.224Z,56.76
2022-12-15T16:56:57.581Z,56.46
2022-12-15T16:59:35.401Z,53.46
2022-12-15T17:02:27.630Z,54.31
2022-12-15T17:04:55.956Z,54.23
2022-12-15T17:07:27.016Z,53.23
2022-12-15T17:09:55.886Z,52.52
2022-12-15T17:12:23.781Z,52.36
2022-12-15T17:14:51.699Z,52.97
2022-12-15T17:17:20.057Z,53.42
2022-12-15T17:20:27.532Z,51.95
2022-12-15T17:22:38.321Z,50.89
2022-12-15T17:25:13.581Z,51.22
2022-12-15T17:27:41.545Z,51.16
2022-12-15T17:30:14.442Z,53.18
2022-12-15T17:32:44.154Z,51.18
2022-12-15T17:35:12.504Z,51.14
2022-12-15T17:37:41.026Z,49.99
2022-12-15T17:40:23.794Z,50.32
2022-12-15T17:42:51.725Z,50.25
2022-12-15T17:45:24.452Z,51.33
2022-12-15T17:47:52.875Z,51.99
2022-12-15T17:50:20.805Z,53.18
2022-12-15T17:52:48.843Z,52.97
2022-12-15T17:55:27.909Z,55.03
2022-12-15T17:57:59.177Z,53.51
2022-12-15T18:00:29.828Z,53.77
2022-12-15T18:03:00.307Z,51.85
2022-12-15T18:05:30.261Z,52.83
2022-12-15T18:08:01.655Z,53.01
2022-12-15T18:10:38.446Z,52.86
2022-12-15T18:13:30.324Z,54.25
2022-12-15T18:16:04.123Z,54.94
2022-12-15T18:18:32.161Z,54.48
2022-12-15T18:21:03.449Z,54.86
2022-12-15T18:23:32.478Z,54.84
2022-12-15T18:26:03.089Z,52.43
2022-12-15T18:28:34.003Z,52.09
2022-12-15T18:31:21.824Z,52.35
2022-12-15T18:33:50.275Z,52.15
2022-12-15T18:36:20.024Z,51.22
2022-12-15T18:38:48.005Z,51.67
2022-12-15T18:41:18.092Z,49.75
2022-12-15T18:43:46.301Z,51.36
2022-12-15T18:46:20.336Z,52.04
2022-12-15T18:48:48.276Z,52.21
2022-12-15T18:51:21.686Z,50.92
2022-12-15T18:53:49.816Z,50.66
2022-12-15T18:56:21.483Z,52.37
2022-12-15T18:58:49.643Z,51.18
2022-12-15T19:01:17.738Z,52.58
2022-12-15T19:03:45.680Z,53.00
2022-12-15T19:06:23.954Z,52.63
2022-12-15T19:08:53.701Z,54.61
2022-12-15T19:11:31.244Z,53.74
2022-12-15T19:14:00.658Z,50.32
2022-12-15T19:16:52.359Z,49.73
2022-12-15T19:19:38.860Z,51.33
2022-12-15T19:22:30.014Z,50.28
2022-12-15T19:24:59.073Z,50.63
2022-12-15T19:27:27.145Z,49.50
2022-12-15T19:29:55.821Z,49.92
2022-12-15T19:32:24.161Z,50.30
2022-12-15T19:34:53.232Z,49.89
2022-12-15T19:37:27.583Z,50.14
2022-12-15T19:39:58.093Z,48.67
2022-12-15T19:42:31.605Z,47.53
2022-12-15T19:45:01.554Z,48.03
2022-12-15T19:47:29.885Z,48.57
2022-12-15T19:49:57.791Z,48.62
2022-12-15T19:52:26.858Z,48.09
2022-12-15T19:54:54.828Z,47.59
2022-12-15T19:57:22.690Z,48.50
2022-12-15T19:59:51.069Z,47.90
2022-12-15T20:02:21.088Z,48.38
2022-12-15T20:04:49.123Z,47.86
2022-12-15T20:07:33.369Z,46.80
2022-12-15T20:10:03.015Z,48.00
2022-12-15T20:12:31.736Z,47.96
2022-12-15T20:14:59.685Z,47.66
2022-12-15T20:17:28.150Z,49.29
2022-12-15T20:19:55.985Z,49.44
2022-12-15T20:22:24.456Z,48.54
2022-12-15T20:24:52.305Z,49.00
2022-12-15T20:27:20.259Z,49.29
2022-12-15T20:29:48.187Z,46.89
2022-12-15T20:32:19.842Z,47.56
2022-12-15T20:34:48.635Z,46.33
2022-12-15T20:37:19.134Z,45.14
2022-12-15T20:39:49.444Z,45.68
2022-12-15T20:42:22.005Z,44.28
2022-12-15T20:44:50.070Z,43.73
2022-12-15T20:47:23.009Z,43.74
2022-12-15T20:49:52.869Z,44.18
2022-12-15T20:52:23.509Z,42.91
2022-12-15T20:54:53.485Z,42.98
2022-12-15T20:57:21.499Z,44.05
2022-12-15T20:59:49.482Z,44.56
2022-12-15T21:02:21.540Z,46.88
2022-12-15T21:04:50.769Z,45.51
2022-12-15T21:07:18.900Z,43.69
2022-12-15T21:09:46.841Z,45.80
2022-12-15T21:12:27.542Z,46.56
2022-12-15T21:14:55.438Z,46.38
2022-12-15T21:17:25.795Z,45.81
2022-12-15T21:19:54.869Z,46.10
2022-12-15T21:22:26.587Z,46.06
2022-12-15T21:24:57.391Z,46.09
2022-12-15T21:27:25.352Z,44.51
2022-12-15T21:29:53.399Z,43.34
2022-12-15T21:32:21.489Z,42.90
2022-12-15T21:34:50.044Z,43.58
2022-12-15T21:37:27.272Z,41.49
2022-12-15T21:39:56.376Z,40.33
2022-12-15T21:42:24.705Z,40.25
2022-12-15T21:44:53.018Z,40.96
2022-12-15T21:47:20.843Z,40.41
2022-12-15T21:49:48.790Z,40.04
2022-12-15T21:52:17.509Z,41.13
2022-12-15T21:54:45.465Z,40.37
2022-12-15T21:57:13.817Z,39.70
2022-12-15T21:59:42.490Z,39.50
2022-12-15T22:02:26.937Z,38.36
2022-12-15T22:04:55.304Z,39.04
2022-12-15T22:07:23.419Z,39.30
2022-12-15T22:09:51.813Z,37.91
2022-12-15T22:12:21.947Z,38.43
2022-12-15T22:14:49.881Z,37.55
2022-12-15T22:17:21.893Z,37.10
2022-12-15T22:19:49.796Z,38.53
2022-12-15T22:22:36.049Z,38.19
2022-12-15T22:25:04.306Z,37.29
2022-12-15T22:27:33.476Z,38.03
2022-12-15T22:30:01.355Z,37.49
2022-12-15T22:32:30.377Z,37.63
2022-12-15T22:34:58.279Z,37.65
2022-12-15T22:37:26.486Z,39.99
2022-12-15T22:39:54.418Z,42.63
2022-12-15T22:42:22.627Z,43.62
2022-12-15T22:44:51.230Z,43.25
2022-12-15T22:47:19.763Z,42.93
2022-12-15T22:49:47.722Z,41.63
2022-12-15T22:52:18.977Z,41.02
2022-12-15T22:54:47.978Z,40.15
2022-12-15T22:57:22.467Z,41.14
2022-12-15T23:00:00.785Z,43.43
2022-12-15T23:02:33.385Z,43.29
2022-12-15T23:05:02.094Z,41.83
2022-12-15T23:07:30.345Z,41.98
2022-12-15T23:10:17.054Z,42.00
2022-12-15T23:12:44.984Z,40.94
2022-12-15T23:15:31.687Z,40.58
2022-12-15T23:17:59.629Z,40.60
2022-12-15T23:20:27.500Z,40.57
2022-12-15T23:22:55.423Z,41.60
2022-12-15T23:25:23.312Z,41.50
2022-12-15T23:27:51.574Z,41.73
2022-12-15T23:30:20.054Z,42.25
2022-12-15T23:32:48.177Z,41.89
2022-12-15T23:35:16.370Z,44.32
2022-12-15T23:37:44.460Z,43.54
2022-12-15T23:40:13.357Z,42.66
2022-12-15T23:42:41.292Z,44.08
2022-12-15T23:45:09.603Z,42.78
2022-12-15T23:47:37.570Z,44.65
2022-12-15T23:50:05.951Z,43.47
2022-12-15T23:52:34.216Z,43.54
2022-12-15T23:55:02.421Z,44.33
2022-12-15T23:57:30.449Z,43.82
2022-12-15T23:59:58.382Z,42.78
